createdAt,value
2019-03-15T00:00:10.928Z,6.47
2019-03-15T00:01:10.899Z,6.44
2019-03-15T00:02:10.878Z,6.47
2019-03-15T00:03:10.901Z,6.46
2019-03-15T00:04:11.397Z,6.46
2019-03-15T00:05:10.874Z,6.46
2019-03-15T00:06:10.906Z,6.48
2019-03-15T00:07:10.903Z,6.5
2019-03-15T00:08:10.887Z,6.48
2019-03-15T00:09:10.908Z,6.5
2019-03-15T00:10:10.907Z,6.48
2019-03-15T00:11:11.729Z,6.5
2019-03-15T00:12:10.932Z,6.53
2019-03-15T00:13:10.932Z,6.54
2019-03-15T00:14:10.922Z,6.57
2019-03-15T00:15:10.894Z,6.54
2019-03-15T00:16:10.886Z,6.56
2019-03-15T00:17:10.902Z,6.53
2019-03-15T00:18:10.969Z,6.54
2019-03-15T00:19:12.859Z,6.56
2019-03-15T00:20:10.992Z,6.53
2019-03-15T00:21:10.838Z,6.57
2019-03-15T00:22:10.863Z,6.56
2019-03-15T00:23:10.843Z,6.54
2019-03-15T00:24:10.857Z,6.56
2019-03-15T00:25:11.809Z,6.57
2019-03-15T00:26:10.862Z,6.56
2019-03-15T00:27:11.056Z,6.54
2019-03-15T00:28:10.857Z,6.57
2019-03-15T00:29:10.882Z,6.58
2019-03-15T00:30:10.884Z,6.58
2019-03-15T00:31:10.897Z,6.57
2019-03-15T00:32:11.062Z,6.57
2019-03-15T00:33:10.847Z,6.58
2019-03-15T00:34:10.820Z,6.58
2019-03-15T00:35:10.859Z,6.57
2019-03-15T00:36:10.864Z,6.6
2019-03-15T00:37:10.826Z,6.57
2019-03-15T00:38:10.840Z,6.6
2019-03-15T00:39:10.834Z,6.58
2019-03-15T00:40:10.937Z,6.6
2019-03-15T00:41:11.288Z,6.6
2019-03-15T00:42:11.011Z,6.61
2019-03-15T00:43:10.829Z,6.63
2019-03-15T00:44:10.839Z,6.64
2019-03-15T00:45:10.838Z,6.67
2019-03-15T00:46:10.860Z,6.7
2019-03-15T00:47:10.822Z,6.68
2019-03-15T00:48:12.036Z,6.68
2019-03-15T00:49:10.979Z,6.68
2019-03-15T00:50:10.852Z,6.67
2019-03-15T00:51:10.815Z,6.67
2019-03-15T00:52:10.879Z,6.67
2019-03-15T00:53:10.786Z,6.64
2019-03-15T00:54:10.833Z,6.65
2019-03-15T00:55:10.821Z,6.65
2019-03-15T00:56:11.915Z,6.63
2019-03-15T00:57:10.812Z,6.61
2019-03-15T00:58:10.836Z,6.6
2019-03-15T00:59:10.809Z,6.64
2019-03-15T01:00:10.783Z,6.61
2019-03-15T01:01:10.802Z,6.6
2019-03-15T01:02:11.678Z,6.58
2019-03-15T01:03:10.816Z,6.61
2019-03-15T01:04:10.778Z,6.57
2019-03-15T01:05:10.871Z,6.6
2019-03-15T01:06:10.808Z,6.6
2019-03-15T01:07:10.776Z,6.57
2019-03-15T01:08:11.712Z,6.6
2019-03-15T01:09:10.810Z,6.54
2019-03-15T01:10:10.778Z,6.57
2019-03-15T01:11:10.773Z,6.54
2019-03-15T01:12:10.831Z,6.56
2019-03-15T01:13:10.907Z,6.56
2019-03-15T01:14:10.790Z,6.56
2019-03-15T01:15:11.229Z,6.51
2019-03-15T01:16:10.888Z,6.54
2019-03-15T01:17:10.838Z,6.53
2019-03-15T01:18:10.808Z,6.5
2019-03-15T01:19:10.847Z,6.53
2019-03-15T01:20:10.786Z,6.48
2019-03-15T01:21:10.904Z,6.46
2019-03-15T01:22:10.821Z,6.47
2019-03-15T01:23:10.772Z,6.47
2019-03-15T01:24:10.844Z,6.43
2019-03-15T01:25:10.757Z,6.47
2019-03-15T01:26:10.826Z,6.44
2019-03-15T01:27:10.797Z,6.43
2019-03-15T01:28:10.774Z,6.44
2019-03-15T01:29:10.943Z,6.43
2019-03-15T01:30:10.906Z,6.46
2019-03-15T01:31:10.765Z,6.43
2019-03-15T01:32:10.805Z,6.43
2019-03-15T01:33:10.749Z,6.43
2019-03-15T01:34:10.801Z,6.4
2019-03-15T01:35:10.777Z,6.44
2019-03-15T01:36:10.764Z,6.41
2019-03-15T01:37:10.795Z,6.43
2019-03-15T01:38:10.976Z,6.43
2019-03-15T01:39:11.339Z,6.41
2019-03-15T01:40:10.839Z,6.4
2019-03-15T01:41:10.730Z,6.41
2019-03-15T01:42:10.737Z,6.43
2019-03-15T01:43:10.753Z,6.5
2019-03-15T01:44:10.748Z,6.48
2019-03-15T01:45:10.788Z,6.46
2019-03-15T01:46:10.876Z,6.47
2019-03-15T01:47:10.727Z,6.47
2019-03-15T01:48:10.758Z,6.48
2019-03-15T01:49:10.926Z,6.47
2019-03-15T01:50:10.760Z,6.47
2019-03-15T01:51:10.781Z,6.47
2019-03-15T01:52:10.742Z,6.47
2019-03-15T01:53:10.776Z,6.48
2019-03-15T01:54:10.739Z,6.47
2019-03-15T01:55:10.722Z,6.46
2019-03-15T01:56:10.742Z,6.47
2019-03-15T01:57:10.779Z,6.47
2019-03-15T01:58:10.709Z,6.47
2019-03-15T01:59:11.007Z,6.47
2019-03-15T02:00:10.784Z,6.44
2019-03-15T02:01:10.745Z,6.46
2019-03-15T02:02:10.696Z,6.51
2019-03-15T02:03:10.709Z,6.5
2019-03-15T02:04:10.732Z,6.48
2019-03-15T02:05:10.713Z,6.48
2019-03-15T02:06:10.725Z,6.5
2019-03-15T02:07:10.729Z,6.5
2019-03-15T02:08:10.724Z,6.53
2019-03-15T02:09:10.740Z,6.51
2019-03-15T02:10:11.267Z,6.5
2019-03-15T02:11:10.690Z,6.51
2019-03-15T02:12:10.697Z,6.53
2019-03-15T02:13:10.820Z,6.5
2019-03-15T02:14:10.704Z,6.54
2019-03-15T02:15:10.680Z,6.53
2019-03-15T02:16:10.686Z,6.53
2019-03-15T02:17:10.686Z,6.51
2019-03-15T02:18:10.688Z,6.5
2019-03-15T02:19:10.701Z,6.48
2019-03-15T02:20:11.249Z,6.5
2019-03-15T02:21:11.058Z,6.5
2019-03-15T02:22:10.743Z,6.5
2019-03-15T02:23:10.662Z,6.5
2019-03-15T02:24:10.686Z,6.5
2019-03-15T02:25:10.685Z,6.51
2019-03-15T02:26:10.704Z,6.47
2019-03-15T02:27:10.805Z,6.47
2019-03-15T02:28:10.737Z,6.47
2019-03-15T02:29:10.690Z,6.47
2019-03-15T02:30:10.724Z,6.46
2019-03-15T02:31:10.715Z,6.47
2019-03-15T02:32:10.691Z,6.47
2019-03-15T02:33:10.707Z,6.5
2019-03-15T02:34:10.658Z,6.47
2019-03-15T02:35:10.811Z,6.47
2019-03-15T02:36:10.710Z,6.5
2019-03-15T02:37:10.662Z,6.5
2019-03-15T02:38:10.692Z,6.48
2019-03-15T02:39:10.680Z,6.51
2019-03-15T02:40:10.695Z,6.51
2019-03-15T02:41:10.647Z,6.51
2019-03-15T02:42:10.759Z,6.5
2019-03-15T02:43:10.613Z,6.51
2019-03-15T02:44:12.892Z,6.53
2019-03-15T02:45:10.699Z,6.5
2019-03-15T02:46:10.684Z,6.53
2019-03-15T02:47:10.727Z,6.53
2019-03-15T02:48:10.695Z,6.53
2019-03-15T02:49:10.660Z,6.5
2019-03-15T02:50:10.645Z,6.51
2019-03-15T02:51:10.826Z,6.5
2019-03-15T02:52:10.644Z,6.5
2019-03-15T02:53:10.667Z,6.5
2019-03-15T02:54:10.635Z,6.51
2019-03-15T02:55:10.602Z,6.56
2019-03-15T02:56:10.645Z,6.57
2019-03-15T02:57:10.651Z,6.56
2019-03-15T02:58:10.681Z,6.53
2019-03-15T02:59:10.626Z,6.54
2019-03-15T03:00:10.622Z,6.51
2019-03-15T03:01:10.616Z,6.53
2019-03-15T03:02:10.669Z,6.53
2019-03-15T03:03:10.640Z,6.56
2019-03-15T03:04:11.042Z,6.53
2019-03-15T03:05:10.811Z,6.54
2019-03-15T03:06:10.685Z,6.54
2019-03-15T03:07:10.668Z,6.58
2019-03-15T03:08:10.626Z,6.61
2019-03-15T03:09:10.658Z,6.6
2019-03-15T03:10:10.654Z,6.61
2019-03-15T03:11:10.636Z,6.6
2019-03-15T03:12:10.634Z,6.6
2019-03-15T03:13:11.153Z,6.61
2019-03-15T03:14:10.617Z,6.63
2019-03-15T03:15:10.614Z,6.61
2019-03-15T03:16:10.698Z,6.65
2019-03-15T03:17:10.631Z,6.65
2019-03-15T03:18:10.607Z,6.67
2019-03-15T03:19:10.659Z,6.73
2019-03-15T03:20:10.619Z,6.71
2019-03-15T03:21:10.601Z,6.77
2019-03-15T03:22:10.666Z,6.8
2019-03-15T03:23:10.598Z,6.81
2019-03-15T03:24:10.666Z,6.81
2019-03-15T03:25:10.687Z,6.78
2019-03-15T03:26:10.710Z,6.81
2019-03-15T03:27:10.608Z,6.81
2019-03-15T03:28:10.621Z,6.8
2019-03-15T03:29:11.034Z,6.8
2019-03-15T03:30:11.122Z,6.78
2019-03-15T03:31:10.625Z,6.81
2019-03-15T03:32:14.537Z,6.84
2019-03-15T03:33:13.069Z,6.83
2019-03-15T03:34:13.515Z,6.84
2019-03-15T03:35:11.250Z,6.87
2019-03-15T03:36:10.619Z,6.88
2019-03-15T03:37:10.570Z,6.87
2019-03-15T03:38:12.746Z,6.88
2019-03-15T03:39:10.573Z,6.94
2019-03-15T03:40:10.592Z,6.92
2019-03-15T03:41:10.899Z,6.91
2019-03-15T03:42:10.596Z,6.91
2019-03-15T03:43:10.578Z,6.96
2019-03-15T03:44:10.625Z,6.98
2019-03-15T03:45:10.537Z,6.96
2019-03-15T03:46:10.580Z,6.98
2019-03-15T03:47:10.564Z,6.99
2019-03-15T03:48:10.574Z,6.96
2019-03-15T03:49:10.569Z,6.96
2019-03-15T03:50:10.566Z,6.95
2019-03-15T03:51:10.588Z,6.95
2019-03-15T03:52:10.736Z,6.96
2019-03-15T03:53:10.626Z,6.95
2019-03-15T03:54:10.593Z,6.95
2019-03-15T03:55:10.581Z,6.96
2019-03-15T03:56:10.541Z,6.92
2019-03-15T03:57:10.818Z,6.96
2019-03-15T03:58:10.551Z,6.95
2019-03-15T03:59:10.737Z,6.92
2019-03-15T04:00:10.568Z,6.94
2019-03-15T04:01:10.598Z,6.94
2019-03-15T04:02:10.599Z,6.95
2019-03-15T04:03:10.535Z,6.95
2019-03-15T04:04:10.543Z,6.98
2019-03-15T04:05:10.547Z,6.94
2019-03-15T04:06:10.672Z,6.98
2019-03-15T04:07:10.597Z,6.98
2019-03-15T04:08:10.629Z,6.98
2019-03-15T04:09:10.551Z,7.01
2019-03-15T04:10:10.557Z,7.01
2019-03-15T04:11:10.581Z,7.01
2019-03-15T04:12:10.835Z,6.98
2019-03-15T04:13:10.539Z,6.98
2019-03-15T04:14:10.544Z,6.98
2019-03-15T04:15:10.511Z,6.98
2019-03-15T04:16:10.511Z,6.99
2019-03-15T04:17:10.520Z,7.01
2019-03-15T04:18:10.514Z,6.99
2019-03-15T04:19:10.583Z,6.99
2019-03-15T04:20:10.513Z,7.05
2019-03-15T04:21:10.616Z,7.05
2019-03-15T04:22:10.534Z,7.06
2019-03-15T04:23:10.625Z,7.05
2019-03-15T04:24:10.585Z,7.05
2019-03-15T04:25:10.553Z,7.03
2019-03-15T04:26:10.568Z,7.06
2019-03-15T04:27:10.501Z,7.08
2019-03-15T04:28:10.489Z,7.08
2019-03-15T04:29:10.525Z,7.09
2019-03-15T04:30:10.509Z,7.12
2019-03-15T04:31:10.487Z,7.15
2019-03-15T04:32:10.516Z,7.11
2019-03-15T04:33:10.524Z,7.13
2019-03-15T04:34:10.529Z,7.13
2019-03-15T04:35:10.506Z,7.15
2019-03-15T04:36:10.536Z,7.16
2019-03-15T04:37:10.497Z,7.16
2019-03-15T04:38:10.499Z,7.16
2019-03-15T04:39:14.353Z,7.18
2019-03-15T04:40:10.541Z,7.16
2019-03-15T04:41:10.523Z,7.18
2019-03-15T04:42:10.552Z,7.18
2019-03-15T04:43:10.497Z,7.2
2019-03-15T04:44:10.576Z,7.22
2019-03-15T04:45:10.494Z,7.22
2019-03-15T04:46:10.493Z,7.22
2019-03-15T04:47:10.489Z,7.19
2019-03-15T04:48:10.486Z,7.22
2019-03-15T04:49:10.483Z,7.2
2019-03-15T04:50:10.484Z,7.2
2019-03-15T04:51:10.558Z,7.19
2019-03-15T04:52:10.497Z,7.2
2019-03-15T04:53:10.471Z,7.2
2019-03-15T04:54:10.456Z,7.22
2019-03-15T04:55:10.544Z,7.2
2019-03-15T04:56:10.455Z,7.2
2019-03-15T04:57:10.561Z,7.19
2019-03-15T04:58:10.871Z,7.22
2019-03-15T04:59:10.491Z,7.2
2019-03-15T05:00:10.459Z,7.19
2019-03-15T05:01:10.463Z,7.19
2019-03-15T05:02:10.446Z,7.2
2019-03-15T05:03:10.458Z,7.2
2019-03-15T05:04:10.445Z,7.2
2019-03-15T05:05:10.467Z,7.22
2019-03-15T05:06:10.469Z,7.22
2019-03-15T05:07:10.435Z,7.2
2019-03-15T05:08:10.446Z,7.22
2019-03-15T05:09:10.467Z,7.22
2019-03-15T05:10:10.494Z,7.23
2019-03-15T05:11:10.439Z,7.23
2019-03-15T05:12:10.527Z,7.2
2019-03-15T05:13:10.516Z,7.24
2019-03-15T05:14:10.436Z,7.26
2019-03-15T05:15:10.457Z,7.26
2019-03-15T05:16:10.456Z,7.24
2019-03-15T05:17:10.461Z,7.26
2019-03-15T05:18:10.451Z,7.27
2019-03-15T05:19:10.701Z,7.27
2019-03-15T05:20:10.494Z,7.26
2019-03-15T05:21:10.444Z,7.27
2019-03-15T05:22:10.467Z,7.26
2019-03-15T05:23:10.469Z,7.29
2019-03-15T05:24:10.507Z,7.27
2019-03-15T05:25:10.413Z,7.26
2019-03-15T05:26:10.439Z,7.27
2019-03-15T05:27:10.472Z,7.27
2019-03-15T05:28:10.523Z,7.27
2019-03-15T05:29:10.407Z,7.27
2019-03-15T05:30:10.435Z,7.27
2019-03-15T05:31:10.471Z,7.27
2019-03-15T05:32:10.518Z,7.27
2019-03-15T05:33:10.397Z,7.27
2019-03-15T05:34:10.451Z,7.33
2019-03-15T05:35:10.451Z,7.29
2019-03-15T05:36:10.414Z,7.31
2019-03-15T05:37:10.389Z,7.36
2019-03-15T05:38:10.423Z,7.34
2019-03-15T05:39:10.427Z,7.34
2019-03-15T05:40:10.437Z,7.33
2019-03-15T05:41:10.404Z,7.33
2019-03-15T05:42:10.600Z,7.31
2019-03-15T05:43:10.397Z,7.34
2019-03-15T05:44:10.434Z,7.31
2019-03-15T05:45:10.400Z,7.34
2019-03-15T05:46:10.398Z,7.34
2019-03-15T05:47:10.419Z,7.33
2019-03-15T05:48:10.412Z,7.3
2019-03-15T05:49:10.418Z,7.31
2019-03-15T05:50:10.386Z,7.31
2019-03-15T05:51:10.373Z,7.31
2019-03-15T05:52:10.418Z,7.31
2019-03-15T05:53:10.389Z,7.31
2019-03-15T05:54:10.581Z,7.31
2019-03-15T05:55:10.387Z,7.31
2019-03-15T05:56:10.391Z,7.29
2019-03-15T05:57:10.370Z,7.3
2019-03-15T05:58:10.381Z,7.3
2019-03-15T05:59:10.393Z,7.31
2019-03-15T06:00:10.380Z,7.3
2019-03-15T06:01:10.458Z,7.3
2019-03-15T06:02:10.429Z,7.3
2019-03-15T06:03:12.977Z,7.27
2019-03-15T06:04:10.527Z,7.27
2019-03-15T06:05:10.382Z,7.26
2019-03-15T06:06:10.365Z,7.29
2019-03-15T06:07:10.349Z,7.26
2019-03-15T06:08:10.371Z,7.27
2019-03-15T06:09:10.363Z,7.3
2019-03-15T06:10:10.486Z,7.29
2019-03-15T06:11:10.378Z,7.27
2019-03-15T06:12:10.361Z,7.29
2019-03-15T06:13:10.447Z,7.29
2019-03-15T06:14:10.367Z,7.3
2019-03-15T06:15:10.477Z,7.3
2019-03-15T06:16:10.359Z,7.29
2019-03-15T06:17:10.354Z,7.3
2019-03-15T06:18:10.364Z,7.27
2019-03-15T06:19:10.389Z,7.3
2019-03-15T06:20:10.371Z,7.27
2019-03-15T06:21:10.504Z,7.29
2019-03-15T06:22:10.365Z,7.27
2019-03-15T06:23:10.350Z,7.3
2019-03-15T06:24:10.340Z,7.27
2019-03-15T06:25:10.503Z,7.3
2019-03-15T06:26:10.563Z,7.3
2019-03-15T06:27:10.378Z,7.3
2019-03-15T06:28:10.400Z,7.29
2019-03-15T06:29:10.318Z,7.27
2019-03-15T06:30:10.325Z,7.29
2019-03-15T06:31:10.364Z,7.29
2019-03-15T06:32:10.342Z,7.29
2019-03-15T06:33:10.349Z,7.3
2019-03-15T06:34:10.326Z,7.3
2019-03-15T06:35:10.377Z,7.27
2019-03-15T06:36:10.364Z,7.26
2019-03-15T06:37:10.381Z,7.26
2019-03-15T06:38:10.327Z,7.27
2019-03-15T06:39:10.353Z,7.29
2019-03-15T06:40:14.241Z,7.3
2019-03-15T06:41:10.325Z,7.29
2019-03-15T06:42:10.363Z,7.29
2019-03-15T06:43:13.777Z,7.29
2019-03-15T06:44:10.298Z,7.29
2019-03-15T06:45:10.320Z,7.3
2019-03-15T06:46:10.338Z,7.3
2019-03-15T06:47:10.568Z,7.29
2019-03-15T06:48:10.654Z,7.31
2019-03-15T06:49:10.287Z,7.31
2019-03-15T06:50:10.366Z,7.31
2019-03-15T06:51:10.315Z,7.31
2019-03-15T06:52:10.306Z,7.33
2019-03-15T06:53:10.352Z,7.33
2019-03-15T06:54:12.281Z,7.34
2019-03-15T06:55:10.301Z,7.36
2019-03-15T06:56:10.282Z,7.33
2019-03-15T06:57:10.309Z,7.33
2019-03-15T06:58:10.309Z,7.33
2019-03-15T06:59:10.314Z,7.34
2019-03-15T07:00:10.291Z,7.34
2019-03-15T07:01:10.556Z,7.33
2019-03-15T07:02:10.301Z,7.31
2019-03-15T07:03:10.278Z,7.31
2019-03-15T07:04:10.289Z,7.3
2019-03-15T07:05:12.781Z,7.31
2019-03-15T07:06:10.599Z,7.34
2019-03-15T07:07:10.668Z,7.33
2019-03-15T07:08:10.291Z,7.33
2019-03-15T07:09:10.272Z,7.36
2019-03-15T07:10:10.564Z,7.33
2019-03-15T07:11:10.293Z,7.34
2019-03-15T07:12:11.817Z,7.31
2019-03-15T07:13:10.296Z,7.36
2019-03-15T07:14:10.280Z,7.34
2019-03-15T07:15:10.379Z,7.36
2019-03-15T07:16:10.257Z,7.37
2019-03-15T07:17:10.269Z,7.34
2019-03-15T07:18:10.241Z,7.31
2019-03-15T07:19:10.266Z,7.36
2019-03-15T07:20:10.282Z,7.34
2019-03-15T07:21:10.274Z,7.37
2019-03-15T07:22:10.251Z,7.31
2019-03-15T07:23:10.261Z,7.33
2019-03-15T07:24:10.255Z,7.33
2019-03-15T07:25:10.257Z,7.33
2019-03-15T07:26:10.247Z,7.33
2019-03-15T07:27:13.841Z,7.37
2019-03-15T07:28:10.240Z,7.39
2019-03-15T07:29:10.238Z,7.36
2019-03-15T07:30:10.280Z,7.36
2019-03-15T07:31:10.334Z,7.37
2019-03-15T07:32:11.495Z,7.34
2019-03-15T07:33:10.349Z,7.37
2019-03-15T07:34:14.464Z,7.36
2019-03-15T07:35:10.286Z,7.37
2019-03-15T07:36:10.231Z,7.36
2019-03-15T07:37:10.283Z,7.37
2019-03-15T07:38:10.221Z,7.37
2019-03-15T07:39:13.357Z,7.37
2019-03-15T07:40:10.313Z,7.36
2019-03-15T07:41:10.267Z,7.37
2019-03-15T07:42:10.327Z,7.37
2019-03-15T07:43:12.252Z,7.34
2019-03-15T07:44:10.324Z,7.37
2019-03-15T07:45:10.337Z,7.36
2019-03-15T07:46:10.228Z,7.37
2019-03-15T07:47:10.205Z,7.37
2019-03-15T07:48:23.296Z,7.37
2019-03-15T07:49:10.227Z,7.39
2019-03-15T07:50:10.226Z,7.39
2019-03-15T07:51:10.234Z,7.41
2019-03-15T07:52:10.274Z,7.4
2019-03-15T07:53:10.362Z,7.39
2019-03-15T07:54:10.249Z,7.39
2019-03-15T07:55:10.387Z,7.41
2019-03-15T07:56:10.251Z,7.4
2019-03-15T07:57:10.218Z,7.4
2019-03-15T07:58:10.231Z,7.4
2019-03-15T07:59:10.244Z,7.43
2019-03-15T08:00:10.191Z,7.43
2019-03-15T08:01:10.211Z,7.43
2019-03-15T08:02:10.212Z,7.46
2019-03-15T08:03:10.287Z,7.43
2019-03-15T08:04:17.859Z,7.44
2019-03-15T08:05:10.181Z,7.43
2019-03-15T08:06:10.207Z,7.44
2019-03-15T08:07:10.189Z,7.44
2019-03-15T08:08:10.267Z,7.43
2019-03-15T08:09:10.191Z,7.43
2019-03-15T08:10:10.211Z,7.46
2019-03-15T08:11:10.239Z,7.46
2019-03-15T08:12:10.261Z,7.44
2019-03-15T08:13:10.204Z,7.48
2019-03-15T08:14:10.151Z,7.47
2019-03-15T08:15:10.211Z,7.47
2019-03-15T08:16:10.268Z,7.5
2019-03-15T08:17:10.420Z,7.48
2019-03-15T08:18:10.196Z,7.5
2019-03-15T08:19:10.187Z,7.51
2019-03-15T08:20:10.204Z,7.5
2019-03-15T08:21:10.210Z,7.48
2019-03-15T08:22:10.253Z,7.5
2019-03-15T08:23:10.181Z,7.51
2019-03-15T08:24:10.185Z,7.51
2019-03-15T08:25:10.177Z,7.54
2019-03-15T08:26:10.205Z,7.53
2019-03-15T08:27:10.168Z,7.55
2019-03-15T08:28:10.194Z,7.53
2019-03-15T08:29:10.304Z,7.58
2019-03-15T08:30:10.259Z,7.57
2019-03-15T08:31:10.212Z,7.59
2019-03-15T08:32:10.185Z,7.57
2019-03-15T08:33:11.534Z,7.58
2019-03-15T08:34:10.152Z,7.59
2019-03-15T08:35:10.191Z,7.59
2019-03-15T08:36:10.170Z,7.61
2019-03-15T08:37:10.166Z,7.64
2019-03-15T08:38:10.387Z,7.61
2019-03-15T08:39:10.226Z,7.62
2019-03-15T08:40:10.164Z,7.67
2019-03-15T08:41:10.154Z,7.65
2019-03-15T08:42:10.252Z,7.65
2019-03-15T08:43:10.147Z,7.67
2019-03-15T08:44:10.279Z,7.67
2019-03-15T08:45:10.146Z,7.65
2019-03-15T08:46:10.135Z,7.67
2019-03-15T08:47:10.192Z,7.72
2019-03-15T08:48:10.131Z,7.69
2019-03-15T08:49:10.294Z,7.69
2019-03-15T08:50:10.179Z,7.71
2019-03-15T08:51:11.244Z,7.71
2019-03-15T08:52:10.155Z,7.71
2019-03-15T08:53:10.118Z,7.75
2019-03-15T08:54:10.120Z,7.71
2019-03-15T08:55:10.119Z,7.75
2019-03-15T08:56:10.111Z,7.77
2019-03-15T08:57:10.163Z,7.72
2019-03-15T08:58:22.427Z,7.78
2019-03-15T08:59:10.132Z,7.8
2019-03-15T09:00:10.105Z,7.78
2019-03-15T09:01:11.311Z,7.78
2019-03-15T09:02:10.248Z,7.8
2019-03-15T09:03:10.234Z,7.8
2019-03-15T09:04:10.129Z,7.78
2019-03-15T09:05:10.143Z,7.81
2019-03-15T09:06:10.248Z,7.8
2019-03-15T09:07:10.157Z,7.81
2019-03-15T09:08:10.197Z,7.84
2019-03-15T09:09:10.173Z,7.82
2019-03-15T09:10:24.356Z,7.84
2019-03-15T09:11:10.105Z,7.84
2019-03-15T09:12:10.119Z,7.86
2019-03-15T09:13:10.210Z,7.88
2019-03-15T09:14:10.181Z,7.88
2019-03-15T09:15:10.219Z,7.86
2019-03-15T09:16:10.100Z,7.88
2019-03-15T09:17:10.116Z,7.91
2019-03-15T09:18:10.383Z,7.92
2019-03-15T09:19:10.129Z,7.92
2019-03-15T09:20:10.108Z,7.92
2019-03-15T09:21:10.087Z,7.93
2019-03-15T09:22:10.196Z,7.92
2019-03-15T09:23:10.159Z,7.95
2019-03-15T09:24:10.126Z,7.95
2019-03-15T09:25:21.180Z,7.98
2019-03-15T09:26:10.831Z,7.96
2019-03-15T09:27:10.899Z,7.96
2019-03-15T09:28:10.141Z,7.99
2019-03-15T09:29:10.094Z,8.02
2019-03-15T09:30:24.795Z,8.03
2019-03-15T09:31:10.076Z,8.03
2019-03-15T09:32:10.128Z,8.06
2019-03-15T09:33:10.147Z,8.06
2019-03-15T09:34:10.100Z,8.06
2019-03-15T09:35:10.076Z,8.08
2019-03-15T09:36:10.072Z,8.12
2019-03-15T09:37:10.137Z,8.1
2019-03-15T09:38:10.973Z,8.1
2019-03-15T09:39:10.081Z,8.14
2019-03-15T09:40:10.048Z,8.13
2019-03-15T09:41:10.053Z,8.13
2019-03-15T09:42:10.061Z,8.14
2019-03-15T09:43:10.064Z,8.2
2019-03-15T09:44:11.923Z,8.2
2019-03-15T09:45:10.337Z,8.2
2019-03-15T09:46:10.037Z,8.21
2019-03-15T09:47:10.078Z,8.24
2019-03-15T09:48:10.175Z,8.24
2019-03-15T09:49:10.197Z,8.26
2019-03-15T09:50:40.300Z,8.27
2019-03-15T09:51:10.030Z,8.31
2019-03-15T09:52:10.073Z,8.31
2019-03-15T09:53:10.045Z,8.34
2019-03-15T09:54:10.055Z,8.34
2019-03-15T09:55:10.051Z,8.34
2019-03-15T09:56:10.029Z,8.33
2019-03-15T09:57:10.038Z,8.36
2019-03-15T09:58:10.039Z,8.37
2019-03-15T09:59:10.054Z,8.38
2019-03-15T10:00:10.324Z,8.4
2019-03-15T10:01:11.259Z,8.41
2019-03-15T10:02:10.043Z,8.4
2019-03-15T10:03:22.822Z,8.43
2019-03-15T10:04:10.046Z,8.45
2019-03-15T10:05:11.932Z,8.45
2019-03-15T10:06:19.743Z,8.47
2019-03-15T10:07:10.279Z,8.48
2019-03-15T10:08:10.009Z,8.49
2019-03-15T10:09:10.042Z,8.54
2019-03-15T10:10:18.703Z,8.54
2019-03-15T10:11:10.016Z,8.55
2019-03-15T10:12:10.019Z,8.57
2019-03-15T10:13:10.165Z,8.58
2019-03-15T10:14:10.075Z,8.58
2019-03-15T10:15:10.299Z,8.62
2019-03-15T10:16:10.021Z,8.62
2019-03-15T10:17:10.000Z,8.66
2019-03-15T10:18:10.011Z,8.68
2019-03-15T10:19:10.014Z,8.69
2019-03-15T10:20:13.146Z,8.74
2019-03-15T10:21:10.061Z,8.71
2019-03-15T10:22:10.011Z,8.71
2019-03-15T10:23:10.026Z,8.74
2019-03-15T10:24:09.992Z,8.76
2019-03-15T10:25:09.982Z,8.79
2019-03-15T10:26:10.063Z,8.8
2019-03-15T10:27:09.995Z,8.82
2019-03-15T10:28:10.324Z,8.82
2019-03-15T10:29:19.540Z,8.85
2019-03-15T10:30:10.001Z,8.85
2019-03-15T10:31:09.992Z,8.88
2019-03-15T10:32:10.123Z,8.89
2019-03-15T10:33:10.009Z,8.95
2019-03-15T10:34:10.244Z,8.93
2019-03-15T10:35:09.994Z,8.98
2019-03-15T10:36:09.994Z,8.96
2019-03-15T10:37:10.009Z,8.98
2019-03-15T10:38:09.974Z,8.95
2019-03-15T10:39:09.995Z,8.98
2019-03-15T10:40:09.981Z,8.96
2019-03-15T10:41:09.974Z,9.03
2019-03-15T10:42:09.996Z,9.02
2019-03-15T10:43:10.003Z,9.06
2019-03-15T10:44:09.961Z,9.11
2019-03-15T10:45:09.972Z,9.1
2019-03-15T10:46:09.954Z,9.1
2019-03-15T10:47:09.965Z,9.17
2019-03-15T10:48:09.988Z,9.16
2019-03-15T10:49:10.004Z,9.21
2019-03-15T10:50:10.027Z,9.19
2019-03-15T10:51:10.355Z,9.2
2019-03-15T10:52:09.966Z,9.19
2019-03-15T10:53:09.965Z,9.23
2019-03-15T10:54:10.009Z,9.29
2019-03-15T10:55:10.125Z,9.27
2019-03-15T10:56:10.002Z,9.26
2019-03-15T10:57:09.964Z,9.3
2019-03-15T10:58:10.033Z,9.33
2019-03-15T10:59:10.018Z,9.3
2019-03-15T11:00:09.957Z,9.35
2019-03-15T11:01:10.007Z,9.37
2019-03-15T11:02:09.988Z,9.37
2019-03-15T11:03:13.350Z,9.4
2019-03-15T11:04:09.974Z,9.38
2019-03-15T11:05:09.976Z,9.4
2019-03-15T11:06:09.944Z,9.42
2019-03-15T11:07:09.961Z,9.45
2019-03-15T11:08:09.937Z,9.47
2019-03-15T11:09:10.297Z,9.48
2019-03-15T11:10:09.949Z,9.48
2019-03-15T11:11:09.982Z,9.48
2019-03-15T11:12:09.940Z,9.51
2019-03-15T11:13:09.983Z,9.54
2019-03-15T11:14:09.951Z,9.55
2019-03-15T11:15:09.986Z,9.51
2019-03-15T11:16:09.962Z,9.55
2019-03-15T11:17:09.977Z,9.55
2019-03-15T11:18:09.931Z,9.59
2019-03-15T11:19:09.941Z,9.59
2019-03-15T11:20:09.943Z,9.61
2019-03-15T11:21:09.925Z,9.59
2019-03-15T11:22:09.992Z,9.61
2019-03-15T11:23:09.991Z,9.68
2019-03-15T11:24:09.949Z,9.68
2019-03-15T11:25:09.942Z,9.7
2019-03-15T11:26:14.411Z,9.7
2019-03-15T11:27:09.934Z,9.73
2019-03-15T11:28:09.936Z,9.76
2019-03-15T11:29:09.912Z,9.76
2019-03-15T11:30:09.974Z,9.81
2019-03-15T11:31:10.024Z,9.82
2019-03-15T11:32:09.927Z,9.86
2019-03-15T11:33:09.968Z,9.89
2019-03-15T11:34:09.906Z,9.89
2019-03-15T11:35:09.987Z,9.85
2019-03-15T11:36:09.924Z,9.89
2019-03-15T11:37:09.912Z,9.94
2019-03-15T11:38:09.926Z,9.92
2019-03-15T11:39:09.920Z,9.89
2019-03-15T11:40:09.928Z,9.9
2019-03-15T11:41:09.916Z,9.92
2019-03-15T11:42:09.921Z,9.96
2019-03-15T11:43:09.894Z,9.96
2019-03-15T11:44:09.896Z,9.96
2019-03-15T11:45:09.888Z,9.94
2019-03-15T11:46:09.899Z,9.97
2019-03-15T11:47:10.068Z,9.96
2019-03-15T11:48:09.941Z,9.94
2019-03-15T11:49:10.034Z,9.97
2019-03-15T11:50:09.887Z,10
2019-03-15T11:51:09.964Z,10.03
2019-03-15T11:52:09.893Z,10.04
2019-03-15T11:53:09.885Z,10.09
2019-03-15T11:54:09.903Z,10.1
2019-03-15T11:55:09.914Z,10.09
2019-03-15T11:56:09.903Z,10.11
2019-03-15T11:57:10.206Z,10.16
2019-03-15T11:58:10.286Z,10.16
2019-03-15T11:59:09.884Z,10.19
2019-03-15T12:00:09.879Z,10.19
2019-03-15T12:01:09.877Z,10.23
2019-03-15T12:02:11.090Z,10.2
2019-03-15T12:03:09.928Z,10.23
2019-03-15T12:04:09.874Z,10.23
2019-03-15T12:05:09.874Z,10.28
2019-03-15T12:06:09.881Z,10.28
2019-03-15T12:07:10.727Z,10.3
2019-03-15T12:08:09.873Z,10.34
2019-03-15T12:09:09.915Z,10.38
2019-03-15T12:10:09.860Z,10.38
2019-03-15T12:11:09.871Z,10.35
2019-03-15T12:12:09.861Z,10.39
2019-03-15T12:13:09.873Z,10.38
2019-03-15T12:14:09.840Z,10.39
2019-03-15T12:15:09.855Z,10.44
2019-03-15T12:16:09.865Z,10.42
2019-03-15T12:17:09.883Z,10.45
2019-03-15T12:18:09.840Z,10.48
2019-03-15T12:19:10.006Z,10.45
2019-03-15T12:20:11.250Z,10.48
2019-03-15T12:21:10.039Z,10.51
2019-03-15T12:22:09.847Z,10.52
2019-03-15T12:23:09.827Z,10.58
2019-03-15T12:24:09.826Z,10.56
2019-03-15T12:25:09.890Z,10.59
2019-03-15T12:26:10.436Z,10.61
2019-03-15T12:27:09.824Z,10.58
2019-03-15T12:28:09.835Z,10.61
2019-03-15T12:29:09.870Z,10.58
2019-03-15T12:30:09.856Z,10.59
2019-03-15T12:31:09.838Z,10.56
2019-03-15T12:32:09.825Z,10.59
2019-03-15T12:33:09.843Z,10.62
2019-03-15T12:34:09.930Z,10.64
2019-03-15T12:35:09.831Z,10.64
2019-03-15T12:36:09.829Z,10.64
2019-03-15T12:37:09.880Z,10.64
2019-03-15T12:38:09.822Z,10.64
2019-03-15T12:39:09.854Z,10.64
2019-03-15T12:40:09.832Z,10.68
2019-03-15T12:41:09.869Z,10.66
2019-03-15T12:42:09.868Z,10.66
2019-03-15T12:43:09.823Z,10.69
2019-03-15T12:44:10.864Z,10.69
2019-03-15T12:45:09.823Z,10.71
2019-03-15T12:46:09.808Z,10.72
2019-03-15T12:47:09.853Z,10.73
2019-03-15T12:48:09.828Z,10.71
2019-03-15T12:49:09.801Z,10.72
2019-03-15T12:50:09.813Z,10.75
2019-03-15T12:51:09.792Z,10.72
2019-03-15T12:52:09.811Z,10.73
2019-03-15T12:53:09.844Z,10.73
2019-03-15T12:54:09.795Z,10.75
2019-03-15T12:55:09.793Z,10.78
2019-03-15T12:56:11.469Z,10.76
2019-03-15T12:57:09.823Z,10.82
2019-03-15T12:58:09.811Z,10.84
2019-03-15T12:59:09.799Z,10.87
2019-03-15T13:00:09.787Z,10.87
2019-03-15T13:01:09.795Z,10.92
2019-03-15T13:02:09.775Z,10.96
2019-03-15T13:03:09.795Z,10.96
2019-03-15T13:04:09.907Z,10.99
2019-03-15T13:05:09.813Z,10.99
2019-03-15T13:06:09.821Z,11
2019-03-15T13:07:09.904Z,10.97
2019-03-15T13:08:09.970Z,11.04
2019-03-15T13:09:09.824Z,11.06
2019-03-15T13:10:10.633Z,11.11
2019-03-15T13:11:09.766Z,11.12
2019-03-15T13:12:09.775Z,11.14
2019-03-15T13:13:09.789Z,11.22
2019-03-15T13:14:09.813Z,11.24
2019-03-15T13:15:09.833Z,11.25
2019-03-15T13:16:09.754Z,11.3
2019-03-15T13:17:09.773Z,11.31
2019-03-15T13:18:09.772Z,11.38
2019-03-15T13:19:09.746Z,11.41